PWSweather.com
Personal Weather Stations
Station Observations
KCAPARAD1
Greenthumb Ln Near Elliott Rd, Paradise, CA 95969

Greenthumb Ln Near Elliott RdParadise, CA 95969

Lat: 39.759, Lon: -121.612

Elevation: 1824

Station Type: Davis Vantage Pro2 Plus

http://paradiseweatherstation.org

High Low Average
Temperature 94.9°F34.9°C 69.8°F21.0°C 81.5°F27.5°C
Dew Point 62.1°F16.7°C 54.3°F12.4°C 58.2°F14.6°C
Winds 2.3 mph 3.7 kmh Calm Calm Calm SSWCalm SSW
Wind Gusts 5.8 mph9.3 kmh -- 1.0 mph1.6 kmh
Humidity 61% 32% 46%
Pressure 29.87 in1011.5 mb 29.74 in1007.1 mb -
Precipitation 0.00 in0.0 mm - -
Hour Temp Dew Point Humidity Winds Wind Gusts Pressure Precip Precip Rate Daily Precip Total
12:00 AM 77.5°F25.3°C 60.6°F15.9°C 56% Calm Calm -- 29.84 in1010.5 mb - 0.00 in0.0 mm 0.00 in0.0 mm
12:10 AM 78.4°F25.8°C 55.3°F12.9°C 45% 1.2 mph SSW1.9 kmh SSW 3.5 mph5.6 kmh 29.85 in1010.8 mb - 0.00 in0.0 mm 0.00 in0.0 mm
12:15 AM 80.0°F26.7°C 55.5°F13.1°C 43% 1.2 mph S1.9 kmh S 2.3 mph3.7 kmh 29.86 in1011.2 mb - 0.00 in0.0 mm 0.00 in0.0 mm
12:20 AM 80.7°F27.1°C 56.1°F13.4°C 43% 1.2 mph S1.9 kmh S 1.2 mph1.9 kmh 29.86 in1011.2 mb - 0.00 in0.0 mm 0.00 in0.0 mm
12:25 AM 80.3°F26.8°C 58.3°F14.6°C 47% Calm Calm 3.5 mph5.6 kmh 29.86 in1011.2 mb - 0.00 in0.0 mm 0.00 in0.0 mm
12:30 AM 79.8°F26.6°C 57.2°F14.0°C 46% 1.2 mph S1.9 kmh S 2.3 mph3.7 kmh 29.87 in1011.5 mb - 0.00 in0.0 mm 0.00 in0.0 mm
12:35 AM 79.3°F26.3°C 56.7°F13.7°C 46% Calm Calm 2.3 mph3.7 kmh 29.87 in1011.5 mb - 0.00 in0.0 mm 0.00 in0.0 mm
12:40 AM 78.7°F25.9°C 57.9°F14.4°C 49% Calm Calm 1.2 mph1.9 kmh 29.87 in1011.5 mb - 0.00 in0.0 mm 0.00 in0.0 mm
12:45 AM 77.5°F25.3°C 56.8°F13.8°C 49% Calm Calm -- 29.86 in1011.2 mb - 0.00 in0.0 mm 0.00 in0.0 mm
12:50 AM 77.3°F25.2°C 56.1°F13.4°C 48% Calm Calm -- 29.87 in1011.5 mb - 0.00 in0.0 mm 0.00 in0.0 mm
12:55 AM 77.4°F25.2°C 55.6°F13.1°C 47% Calm Calm -- 29.87 in1011.5 mb - 0.00 in0.0 mm 0.00 in0.0 mm
01:00 AM 77.9°F25.5°C 55.4°F13.0°C 46% Calm Calm -- 29.87 in1011.5 mb - 0.00 in0.0 mm 0.00 in0.0 mm
01:10 AM 77.4°F25.2°C 56.1°F13.4°C 48% Calm Calm -- 29.87 in1011.5 mb - 0.00 in0.0 mm 0.00 in0.0 mm
01:15 AM 77.0°F25.0°C 57.5°F14.2°C 51% Calm Calm -- 29.86 in1011.2 mb - 0.00 in0.0 mm 0.00 in0.0 mm
01:20 AM 76.3°F24.6°C 57.4°F14.1°C 52% Calm Calm -- 29.86 in1011.2 mb - 0.00 in0.0 mm 0.00 in0.0 mm
01:25 AM 75.6°F24.2°C 57.8°F14.3°C 54% Calm Calm -- 29.86 in1011.2 mb - 0.00 in0.0 mm 0.00 in0.0 mm
01:30 AM 75.5°F24.2°C 57.7°F14.3°C 54% Calm Calm -- 29.85 in1010.8 mb - 0.00 in0.0 mm 0.00 in0.0 mm
01:35 AM 75.3°F24.1°C 57.5°F14.2°C 54% Calm Calm -- 29.85 in1010.8 mb - 0.00 in0.0 mm 0.00 in0.0 mm
01:40 AM 75.2°F24.0°C 57.4°F14.1°C 54% Calm Calm -- 29.85 in1010.8 mb - 0.00 in0.0 mm 0.00 in0.0 mm
01:45 AM 75.1°F23.9°C 56.3°F13.5°C 52% Calm Calm 1.2 mph1.9 kmh 29.84 in1010.5 mb - 0.00 in0.0 mm 0.00 in0.0 mm
01:50 AM 75.5°F24.2°C 56.1°F13.4°C 51% Calm Calm 1.2 mph1.9 kmh 29.84 in1010.5 mb - 0.00 in0.0 mm 0.00 in0.0 mm
01:55 AM 75.5°F24.2°C 56.1°F13.4°C 51% Calm Calm -- 29.84 in1010.5 mb - 0.00 in0.0 mm 0.00 in0.0 mm
02:00 AM 75.4°F24.1°C 56.0°F13.3°C 51% Calm Calm -- 29.84 in1010.5 mb - 0.00 in0.0 mm 0.00 in0.0 mm
02:10 AM 75.3°F24.1°C 56.5°F13.6°C 52% Calm Calm 1.2 mph1.9 kmh 29.84 in1010.5 mb - 0.00 in0.0 mm 0.00 in0.0 mm
02:15 AM 75.2°F24.0°C 56.4°F13.6°C 52% Calm Calm -- 29.84 in1010.5 mb - 0.00 in0.0 mm 0.00 in0.0 mm
02:20 AM 75.2°F24.0°C 55.8°F13.2°C 51% Calm Calm -- 29.83 in1010.2 mb - 0.00 in0.0 mm 0.00 in0.0 mm
02:25 AM 75.1°F23.9°C 56.3°F13.5°C 52% Calm Calm -- 29.83 in1010.2 mb - 0.00 in0.0 mm 0.00 in0.0 mm
02:30 AM 75.1°F23.9°C 55.7°F13.2°C 51% Calm Calm -- 29.83 in1010.2 mb - 0.00 in0.0 mm 0.00 in0.0 mm
02:35 AM 75.0°F23.9°C 55.6°F13.1°C 51% Calm Calm -- 29.83 in1010.2 mb - 0.00 in0.0 mm 0.00 in0.0 mm
02:40 AM 74.9°F23.8°C 56.1°F13.4°C 52% Calm Calm 1.2 mph1.9 kmh 29.83 in1010.2 mb - 0.00 in0.0 mm 0.00 in0.0 mm
02:45 AM 75.0°F23.9°C 56.2°F13.4°C 52% Calm Calm -- 29.83 in1010.2 mb - 0.00 in0.0 mm 0.00 in0.0 mm
02:50 AM 75.1°F23.9°C 56.3°F13.5°C 52% Calm Calm -- 29.83 in1010.2 mb - 0.00 in0.0 mm 0.00 in0.0 mm
02:55 AM 75.0°F23.9°C 55.6°F13.1°C 51% Calm Calm -- 29.83 in1010.2 mb - 0.00 in0.0 mm 0.00 in0.0 mm
03:00 AM 75.1°F23.9°C 56.3°F13.5°C 52% Calm Calm -- 29.83 in1010.2 mb - 0.00 in0.0 mm 0.00 in0.0 mm
03:10 AM 75.2°F24.0°C 55.8°F13.2°C 51% Calm Calm -- 29.83 in1010.2 mb - 0.00 in0.0 mm 0.00 in0.0 mm
03:15 AM 75.3°F24.1°C 55.9°F13.3°C 51% Calm Calm 1.2 mph1.9 kmh 29.83 in1010.2 mb - 0.00 in0.0 mm 0.00 in0.0 mm
03:20 AM 75.4°F24.1°C 56.0°F13.3°C 51% Calm Calm -- 29.82 in1009.8 mb - 0.00 in0.0 mm 0.00 in0.0 mm
03:25 AM 75.4°F24.1°C 56.0°F13.3°C 51% Calm Calm 1.2 mph1.9 kmh 29.82 in1009.8 mb - 0.00 in0.0 mm 0.00 in0.0 mm
03:30 AM 75.3°F24.1°C 55.4°F13.0°C 50% Calm Calm -- 29.82 in1009.8 mb - 0.00 in0.0 mm 0.00 in0.0 mm
03:35 AM 75.2°F24.0°C 55.8°F13.2°C 51% Calm Calm -- 29.82 in1009.8 mb - 0.00 in0.0 mm 0.00 in0.0 mm
03:40 AM 75.1°F23.9°C 55.7°F13.2°C 51% Calm Calm -- 29.82 in1009.8 mb - 0.00 in0.0 mm 0.00 in0.0 mm
03:45 AM 75.0°F23.9°C 55.6°F13.1°C 51% Calm Calm -- 29.82 in1009.8 mb - 0.00 in0.0 mm 0.00 in0.0 mm
03:50 AM 74.9°F23.8°C 55.6°F13.1°C 51% Calm Calm -- 29.82 in1009.8 mb - 0.00 in0.0 mm 0.00 in0.0 mm
03:55 AM 74.8°F23.8°C 55.5°F13.1°C 51% Calm Calm -- 29.82 in1009.8 mb - 0.00 in0.0 mm 0.00 in0.0 mm
04:00 AM 74.6°F23.7°C 55.8°F13.2°C 52% Calm Calm -- 29.82 in1009.8 mb - 0.00 in0.0 mm 0.00 in0.0 mm
04:10 AM 74.4°F23.6°C 55.6°F13.1°C 52% Calm Calm -- 29.82 in1009.8 mb - 0.00 in0.0 mm 0.00 in0.0 mm
04:15 AM 74.2°F23.4°C 55.4°F13.0°C 52% Calm Calm -- 29.82 in1009.8 mb - 0.00 in0.0 mm 0.00 in0.0 mm
04:20 AM 73.9°F23.3°C 55.7°F13.2°C 53% Calm Calm -- 29.82 in1009.8 mb - 0.00 in0.0 mm 0.00 in0.0 mm
04:25 AM 73.5°F23.1°C 55.3°F12.9°C 53% Calm Calm -- 29.82 in1009.8 mb - 0.00 in0.0 mm 0.00 in0.0 mm
04:30 AM 73.3°F22.9°C 55.6°F13.1°C 54% Calm Calm -- 29.82 in1009.8 mb - 0.00 in0.0 mm 0.00 in0.0 mm
04:35 AM 73.1°F22.8°C 54.9°F12.7°C 53% Calm Calm -- 29.82 in1009.8 mb - 0.00 in0.0 mm 0.00 in0.0 mm
04:40 AM 72.9°F22.7°C 55.2°F12.9°C 54% Calm Calm -- 29.82 in1009.8 mb - 0.00 in0.0 mm 0.00 in0.0 mm
04:45 AM 72.6°F22.6°C 55.5°F13.1°C 55% Calm Calm -- 29.82 in1009.8 mb - 0.00 in0.0 mm 0.00 in0.0 mm
04:50 AM 72.4°F22.4°C 55.3°F12.9°C 55% Calm Calm 1.2 mph1.9 kmh 29.82 in1009.8 mb - 0.00 in0.0 mm 0.00 in0.0 mm
04:55 AM 72.3°F22.4°C 55.3°F12.9°C 55% Calm Calm -- 29.82 in1009.8 mb - 0.00 in0.0 mm 0.00 in0.0 mm
05:00 AM 72.3°F22.4°C 55.2°F12.9°C 55% Calm Calm -- 29.82 in1009.8 mb - 0.00 in0.0 mm 0.00 in0.0 mm
05:10 AM 72.3°F22.4°C 55.2°F12.9°C 55% Calm Calm -- 29.82 in1009.8 mb - 0.00 in0.0 mm 0.00 in0.0 mm
05:15 AM 72.2°F22.3°C 55.1°F12.8°C 55% Calm Calm -- 29.82 in1009.8 mb - 0.00 in0.0 mm 0.00 in0.0 mm
05:20 AM 72.1°F22.3°C 55.0°F12.8°C 55% Calm Calm -- 29.82 in1009.8 mb - 0.00 in0.0 mm 0.00 in0.0 mm
05:25 AM 71.9°F22.2°C 54.9°F12.7°C 55% Calm Calm -- 29.82 in1009.8 mb - 0.00 in0.0 mm 0.00 in0.0 mm
05:30 AM 71.9°F22.2°C 54.9°F12.7°C 55% Calm Calm -- 29.81 in1009.5 mb - 0.00 in0.0 mm 0.00 in0.0 mm
05:35 AM 71.9°F22.2°C 54.9°F12.7°C 55% Calm Calm -- 29.81 in1009.5 mb - 0.00 in0.0 mm 0.00 in0.0 mm
05:40 AM 72.1°F22.3°C 54.5°F12.5°C 54% Calm Calm -- 29.82 in1009.8 mb - 0.00 in0.0 mm 0.00 in0.0 mm
05:45 AM 72.1°F22.3°C 55.0°F12.8°C 55% Calm Calm -- 29.82 in1009.8 mb - 0.00 in0.0 mm 0.00 in0.0 mm
05:50 AM 72.1°F22.3°C 56.0°F13.3°C 57% Calm Calm -- 29.82 in1009.8 mb - 0.00 in0.0 mm 0.00 in0.0 mm
05:55 AM 72.1°F22.3°C 55.0°F12.8°C 55% Calm Calm -- 29.82 in1009.8 mb - 0.00 in0.0 mm 0.00 in0.0 mm
06:00 AM 72.0°F22.2°C 54.4°F12.4°C 54% Calm Calm -- 29.82 in1009.8 mb - 0.00 in0.0 mm 0.00 in0.0 mm
06:10 AM 71.5°F21.9°C 54.5°F12.5°C 55% Calm Calm -- 29.82 in1009.8 mb - 0.00 in0.0 mm 0.00 in0.0 mm
06:15 AM 71.3°F21.8°C 54.3°F12.4°C 55% Calm Calm -- 29.82 in1009.8 mb - 0.00 in0.0 mm 0.00 in0.0 mm
06:20 AM 71.1°F21.7°C 54.7°F12.6°C 56% Calm Calm -- 29.82 in1009.8 mb - 0.00 in0.0 mm 0.00 in0.0 mm
06:25 AM 71.0°F21.7°C 54.5°F12.5°C 56% Calm Calm -- 29.82 in1009.8 mb - 0.00 in0.0 mm 0.00 in0.0 mm
06:30 AM 70.8°F21.6°C 54.8°F12.7°C 57% Calm Calm -- 29.82 in1009.8 mb - 0.00 in0.0 mm 0.00 in0.0 mm
06:35 AM 70.6°F21.4°C 54.6°F12.6°C 57% Calm Calm -- 29.82 in1009.8 mb - 0.00 in0.0 mm 0.00 in0.0 mm
06:40 AM 70.3°F21.3°C 54.8°F12.7°C 58% Calm Calm -- 29.82 in1009.8 mb - 0.00 in0.0 mm 0.00 in0.0 mm
06:45 AM 70.2°F21.2°C 54.7°F12.6°C 58% Calm Calm -- 29.82 in1009.8 mb - 0.00 in0.0 mm 0.00 in0.0 mm
06:50 AM 70.1°F21.2°C 54.6°F12.6°C 58% Calm Calm -- 29.82 in1009.8 mb - 0.00 in0.0 mm 0.00 in0.0 mm
06:55 AM 69.9°F21.1°C 54.9°F12.7°C 59% Calm Calm -- 29.83 in1010.2 mb - 0.00 in0.0 mm 0.00 in0.0 mm
07:00 AM 69.9°F21.1°C 54.9°F12.7°C 59% Calm Calm -- 29.82 in1009.8 mb - 0.00 in0.0 mm 0.00 in0.0 mm
07:10 AM 69.9°F21.1°C 54.9°F12.7°C 59% Calm Calm -- 29.83 in1010.2 mb - 0.00 in0.0 mm 0.00 in0.0 mm
07:15 AM 69.9°F21.1°C 54.9°F12.7°C 59% Calm Calm -- 29.83 in1010.2 mb - 0.00 in0.0 mm 0.00 in0.0 mm
07:20 AM 69.8°F21.0°C 54.8°F12.7°C 59% Calm Calm -- 29.83 in1010.2 mb - 0.00 in0.0 mm 0.00 in0.0 mm
07:25 AM 69.9°F21.1°C 55.4°F13.0°C 60% Calm Calm -- 29.83 in1010.2 mb - 0.00 in0.0 mm 0.00 in0.0 mm
07:30 AM 69.9°F21.1°C 55.4°F13.0°C 60% Calm Calm -- 29.83 in1010.2 mb - 0.00 in0.0 mm 0.00 in0.0 mm
07:35 AM 70.0°F21.1°C 55.5°F13.1°C 60% Calm Calm -- 29.83 in1010.2 mb - 0.00 in0.0 mm 0.00 in0.0 mm
07:40 AM 70.2°F21.2°C 55.6°F13.1°C 60% Calm Calm -- 29.83 in1010.2 mb - 0.00 in0.0 mm 0.00 in0.0 mm
07:45 AM 70.4°F21.3°C 55.8°F13.2°C 60% Calm Calm -- 29.84 in1010.5 mb - 0.00 in0.0 mm 0.00 in0.0 mm
07:50 AM 70.5°F21.4°C 56.4°F13.6°C 61% Calm Calm -- 29.83 in1010.2 mb - 0.00 in0.0 mm 0.00 in0.0 mm
07:55 AM 70.7°F21.5°C 56.5°F13.6°C 61% Calm Calm -- 29.83 in1010.2 mb - 0.00 in0.0 mm 0.00 in0.0 mm
08:00 AM 70.9°F21.6°C 56.8°F13.8°C 61% Calm Calm -- 29.83 in1010.2 mb - 0.00 in0.0 mm 0.00 in0.0 mm
08:10 AM 71.5°F21.9°C 57.3°F14.1°C 61% Calm Calm -- 29.83 in1010.2 mb - 0.00 in0.0 mm 0.00 in0.0 mm
08:15 AM 71.8°F22.1°C 57.6°F14.2°C 61% Calm Calm -- 29.84 in1010.5 mb - 0.00 in0.0 mm 0.00 in0.0 mm
08:20 AM 72.2°F22.3°C 58.0°F14.4°C 61% Calm Calm -- 29.84 in1010.5 mb - 0.00 in0.0 mm 0.00 in0.0 mm
08:25 AM 72.7°F22.6°C 58.0°F14.4°C 60% Calm Calm -- 29.84 in1010.5 mb - 0.00 in0.0 mm 0.00 in0.0 mm
08:30 AM 73.0°F22.8°C 58.8°F14.9°C 61% Calm Calm -- 29.84 in1010.5 mb - 0.00 in0.0 mm 0.00 in0.0 mm
08:35 AM 73.4°F23.0°C 59.1°F15.1°C 61% Calm Calm -- 29.84 in1010.5 mb - 0.00 in0.0 mm 0.00 in0.0 mm
08:40 AM 73.9°F23.3°C 59.6°F15.3°C 61% Calm Calm -- 29.84 in1010.5 mb - 0.00 in0.0 mm 0.00 in0.0 mm
08:45 AM 74.8°F23.8°C 59.5°F15.3°C 59% Calm Calm -- 29.84 in1010.5 mb - 0.00 in0.0 mm 0.00 in0.0 mm
08:50 AM 75.5°F24.2°C 60.2°F15.7°C 59% Calm Calm -- 29.84 in1010.5 mb - 0.00 in0.0 mm 0.00 in0.0 mm
08:55 AM 76.3°F24.6°C 59.4°F15.2°C 56% Calm Calm -- 29.84 in1010.5 mb - 0.00 in0.0 mm 0.00 in0.0 mm
09:00 AM 77.1°F25.1°C 58.1°F14.5°C 52% Calm Calm -- 29.84 in1010.5 mb - 0.00 in0.0 mm 0.00 in0.0 mm
09:10 AM 79.0°F26.1°C 59.3°F15.2°C 51% Calm Calm -- 29.84 in1010.5 mb - 0.00 in0.0 mm 0.00 in0.0 mm
09:15 AM 79.9°F26.6°C 60.2°F15.7°C 51% Calm Calm -- 29.84 in1010.5 mb - 0.00 in0.0 mm 0.00 in0.0 mm
09:20 AM 80.5°F26.9°C 60.7°F15.9°C 51% Calm Calm -- 29.84 in1010.5 mb - 0.00 in0.0 mm 0.00 in0.0 mm
09:25 AM 81.3°F27.4°C 60.3°F15.7°C 49% Calm Calm -- 29.84 in1010.5 mb - 0.00 in0.0 mm 0.00 in0.0 mm
09:30 AM 82.0°F27.8°C 59.8°F15.4°C 47% Calm Calm -- 29.84 in1010.5 mb - 0.00 in0.0 mm 0.00 in0.0 mm
09:35 AM 82.7°F28.2°C 57.9°F14.4°C 43% Calm Calm 1.2 mph1.9 kmh 29.84 in1010.5 mb - 0.00 in0.0 mm 0.00 in0.0 mm
09:40 AM 83.5°F28.6°C 58.0°F14.4°C 42% Calm Calm -- 29.84 in1010.5 mb - 0.00 in0.0 mm 0.00 in0.0 mm
09:45 AM 83.9°F28.8°C 59.7°F15.4°C 44% Calm Calm -- 29.84 in1010.5 mb - 0.00 in0.0 mm 0.00 in0.0 mm
09:50 AM 84.4°F29.1°C 58.1°F14.5°C 41% Calm Calm -- 29.84 in1010.5 mb - 0.00 in0.0 mm 0.00 in0.0 mm
09:55 AM 85.0°F29.4°C 58.6°F14.8°C 41% Calm Calm 1.2 mph1.9 kmh 29.84 in1010.5 mb - 0.00 in0.0 mm 0.00 in0.0 mm
10:00 AM 85.2°F29.6°C 58.1°F14.5°C 40% Calm Calm 2.3 mph3.7 kmh 29.84 in1010.5 mb - 0.00 in0.0 mm 0.00 in0.0 mm
10:10 AM 85.9°F29.9°C 57.3°F14.1°C 38% Calm Calm 2.3 mph3.7 kmh 29.84 in1010.5 mb - 0.00 in0.0 mm 0.00 in0.0 mm
10:15 AM 86.4°F30.2°C 57.0°F13.9°C 37% Calm Calm -- 29.84 in1010.5 mb - 0.00 in0.0 mm 0.00 in0.0 mm
10:20 AM 86.9°F30.5°C 58.9°F14.9°C 39% Calm Calm -- 29.84 in1010.5 mb - 0.00 in0.0 mm 0.00 in0.0 mm
10:25 AM 87.2°F30.7°C 57.0°F13.9°C 36% Calm Calm -- 29.84 in1010.5 mb - 0.00 in0.0 mm 0.00 in0.0 mm
10:30 AM 87.7°F30.9°C 57.4°F14.1°C 36% 1.2 mph S1.9 kmh S 2.3 mph3.7 kmh 29.84 in1010.5 mb - 0.00 in0.0 mm 0.00 in0.0 mm
10:35 AM 88.5°F31.4°C 58.1°F14.5°C 36% Calm Calm 2.3 mph3.7 kmh 29.84 in1010.5 mb - 0.00 in0.0 mm 0.00 in0.0 mm
10:40 AM 88.7°F31.5°C 57.5°F14.2°C 35% Calm Calm 1.2 mph1.9 kmh 29.84 in1010.5 mb - 0.00 in0.0 mm 0.00 in0.0 mm
10:45 AM 88.3°F31.3°C 57.9°F14.4°C 36% 1.2 mph S1.9 kmh S 1.2 mph1.9 kmh 29.84 in1010.5 mb - 0.00 in0.0 mm 0.00 in0.0 mm
10:50 AM 88.1°F31.2°C 57.8°F14.3°C 36% 1.2 mph SSE1.9 kmh SSE 3.5 mph5.6 kmh 29.84 in1010.5 mb - 0.00 in0.0 mm 0.00 in0.0 mm
10:55 AM 88.7°F31.5°C 59.8°F15.4°C 38% Calm Calm 2.3 mph3.7 kmh 29.84 in1010.5 mb - 0.00 in0.0 mm 0.00 in0.0 mm
11:00 AM 89.5°F31.9°C 59.8°F15.4°C 37% Calm Calm 1.2 mph1.9 kmh 29.84 in1010.5 mb - 0.00 in0.0 mm 0.00 in0.0 mm
11:10 AM 88.9°F31.6°C 59.3°F15.2°C 37% Calm Calm -- 29.83 in1010.2 mb - 0.00 in0.0 mm 0.00 in0.0 mm
11:15 AM 89.1°F31.7°C 58.6°F14.8°C 36% Calm Calm 1.2 mph1.9 kmh 29.83 in1010.2 mb - 0.00 in0.0 mm 0.00 in0.0 mm
11:20 AM 89.1°F31.7°C 58.7°F14.8°C 36% Calm Calm 2.3 mph3.7 kmh 29.83 in1010.2 mb - 0.00 in0.0 mm 0.00 in0.0 mm
11:25 AM 89.8°F32.1°C 59.3°F15.2°C 36% 1.2 mph SSE1.9 kmh SSE 3.5 mph5.6 kmh 29.83 in1010.2 mb - 0.00 in0.0 mm 0.00 in0.0 mm
11:30 AM 89.8°F32.1°C 58.5°F14.7°C 35% Calm Calm -- 29.83 in1010.2 mb - 0.00 in0.0 mm 0.00 in0.0 mm
11:35 AM 90.0°F32.2°C 60.2°F15.7°C 37% Calm Calm 1.2 mph1.9 kmh 29.83 in1010.2 mb - 0.00 in0.0 mm 0.00 in0.0 mm
11:40 AM 90.7°F32.6°C 60.8°F16.0°C 37% Calm Calm -- 29.83 in1010.2 mb - 0.00 in0.0 mm 0.00 in0.0 mm
11:45 AM 91.1°F32.8°C 60.4°F15.8°C 36% Calm Calm -- 29.83 in1010.2 mb - 0.00 in0.0 mm 0.00 in0.0 mm
11:50 AM 91.0°F32.8°C 59.6°F15.3°C 35% Calm Calm 2.3 mph3.7 kmh 29.82 in1009.8 mb - 0.00 in0.0 mm 0.00 in0.0 mm
11:55 AM 90.4°F32.4°C 59.1°F15.1°C 35% Calm Calm 1.2 mph1.9 kmh 29.82 in1009.8 mb - 0.00 in0.0 mm 0.00 in0.0 mm
12:00 PM 91.0°F32.8°C 60.4°F15.8°C 36% 1.2 mph S1.9 kmh S 3.5 mph5.6 kmh 29.82 in1009.8 mb - 0.00 in0.0 mm 0.00 in0.0 mm
12:10 PM 91.9°F33.3°C 59.5°F15.3°C 34% 1.2 mph S1.9 kmh S 3.5 mph5.6 kmh 29.82 in1009.8 mb - 0.00 in0.0 mm 0.00 in0.0 mm
12:15 PM 91.3°F32.9°C 59.9°F15.5°C 35% Calm Calm 1.2 mph1.9 kmh 29.82 in1009.8 mb - 0.00 in0.0 mm 0.00 in0.0 mm
12:20 PM 92.3°F33.5°C 59.0°F15.0°C 33% 1.2 mph S1.9 kmh S 2.3 mph3.7 kmh 29.82 in1009.8 mb - 0.00 in0.0 mm 0.00 in0.0 mm
12:25 PM 92.0°F33.3°C 59.6°F15.3°C 34% Calm Calm 1.2 mph1.9 kmh 29.82 in1009.8 mb - 0.00 in0.0 mm 0.00 in0.0 mm
12:30 PM 91.9°F33.3°C 60.4°F15.8°C 35% 1.2 mph S1.9 kmh S 3.5 mph5.6 kmh 29.82 in1009.8 mb - 0.00 in0.0 mm 0.00 in0.0 mm
12:35 PM 92.0°F33.3°C 60.5°F15.8°C 35% Calm Calm 1.2 mph1.9 kmh 29.81 in1009.5 mb - 0.00 in0.0 mm 0.00 in0.0 mm
12:40 PM 92.7°F33.7°C 61.0°F16.1°C 35% Calm Calm 2.3 mph3.7 kmh 29.82 in1009.8 mb - 0.00 in0.0 mm 0.00 in0.0 mm
12:45 PM 92.4°F33.6°C 61.6°F16.4°C 36% Calm Calm 1.2 mph1.9 kmh 29.82 in1009.8 mb - 0.00 in0.0 mm 0.00 in0.0 mm
12:50 PM 92.6°F33.7°C 61.0°F16.1°C 35% Calm Calm 1.2 mph1.9 kmh 29.81 in1009.5 mb - 0.00 in0.0 mm 0.00 in0.0 mm
12:55 PM 91.7°F33.2°C 60.2°F15.7°C 35% Calm Calm 3.5 mph5.6 kmh 29.81 in1009.5 mb - 0.00 in0.0 mm 0.00 in0.0 mm
01:00 PM 91.3°F32.9°C 59.8°F15.4°C 35% 1.2 mph S1.9 kmh S 2.3 mph3.7 kmh 29.81 in1009.5 mb - 0.00 in0.0 mm 0.00 in0.0 mm
01:10 PM 92.6°F33.7°C 60.9°F16.1°C 35% 1.2 mph S1.9 kmh S 2.3 mph3.7 kmh 29.81 in1009.5 mb - 0.00 in0.0 mm 0.00 in0.0 mm
01:15 PM 92.2°F33.4°C 59.8°F15.4°C 34% 1.2 mph S1.9 kmh S 2.3 mph3.7 kmh 29.80 in1009.1 mb - 0.00 in0.0 mm 0.00 in0.0 mm
01:20 PM 93.0°F33.9°C 61.3°F16.3°C 35% Calm Calm 3.5 mph5.6 kmh 29.80 in1009.1 mb - 0.00 in0.0 mm 0.00 in0.0 mm
01:25 PM 92.6°F33.7°C 60.2°F15.7°C 34% 1.2 mph SSE1.9 kmh SSE 2.3 mph3.7 kmh 29.80 in1009.1 mb - 0.00 in0.0 mm 0.00 in0.0 mm
01:30 PM 93.1°F33.9°C 60.6°F15.9°C 34% 2.3 mph SSE3.7 kmh SSE 3.5 mph5.6 kmh 29.80 in1009.1 mb - 0.00 in0.0 mm 0.00 in0.0 mm
01:35 PM 93.1°F33.9°C 61.4°F16.3°C 35% 2.3 mph SSE3.7 kmh SSE 4.6 mph7.4 kmh 29.80 in1009.1 mb - 0.00 in0.0 mm 0.00 in0.0 mm
01:40 PM 93.5°F34.2°C 61.8°F16.6°C 35% Calm Calm -- 29.80 in1009.1 mb - 0.00 in0.0 mm 0.00 in0.0 mm
01:45 PM 92.8°F33.8°C 60.3°F15.7°C 34% Calm Calm 1.2 mph1.9 kmh 29.79 in1008.8 mb - 0.00 in0.0 mm 0.00 in0.0 mm
01:50 PM 92.5°F33.6°C 60.9°F16.1°C 35% Calm Calm -- 29.79 in1008.8 mb - 0.00 in0.0 mm 0.00 in0.0 mm
01:55 PM 92.0°F33.3°C 59.6°F15.3°C 34% 1.2 mph SSW1.9 kmh SSW 2.3 mph3.7 kmh 29.79 in1008.8 mb - 0.00 in0.0 mm 0.00 in0.0 mm
02:00 PM 92.7°F33.7°C 59.4°F15.2°C 33% 1.2 mph SSE1.9 kmh SSE 2.3 mph3.7 kmh 29.79 in1008.8 mb - 0.00 in0.0 mm 0.00 in0.0 mm
02:10 PM 93.6°F34.2°C 60.2°F15.7°C 33% Calm Calm 1.2 mph1.9 kmh 29.79 in1008.8 mb - 0.00 in0.0 mm 0.00 in0.0 mm
02:15 PM 93.4°F34.1°C 60.0°F15.6°C 33% 2.3 mph SE3.7 kmh SE 3.5 mph5.6 kmh 29.79 in1008.8 mb - 0.00 in0.0 mm 0.00 in0.0 mm
02:20 PM 93.5°F34.2°C 60.9°F16.1°C 34% Calm Calm 2.3 mph3.7 kmh 29.78 in1008.5 mb - 0.00 in0.0 mm 0.00 in0.0 mm
02:25 PM 93.5°F34.2°C 61.7°F16.5°C 35% Calm Calm 1.2 mph1.9 kmh 29.78 in1008.5 mb - 0.00 in0.0 mm 0.00 in0.0 mm
02:30 PM 93.6°F34.2°C 60.2°F15.7°C 33% 1.2 mph S1.9 kmh S 5.8 mph9.3 kmh 29.78 in1008.5 mb - 0.00 in0.0 mm 0.00 in0.0 mm
02:35 PM 93.4°F34.1°C 60.9°F16.1°C 34% Calm Calm 1.2 mph1.9 kmh 29.78 in1008.5 mb - 0.00 in0.0 mm 0.00 in0.0 mm
02:40 PM 94.0°F34.4°C 59.7°F15.4°C 32% Calm Calm 2.3 mph3.7 kmh 29.77 in1008.1 mb - 0.00 in0.0 mm 0.00 in0.0 mm
02:45 PM 94.2°F34.6°C 59.8°F15.4°C 32% Calm Calm 1.2 mph1.9 kmh 29.77 in1008.1 mb - 0.00 in0.0 mm 0.00 in0.0 mm
02:50 PM 94.5°F34.7°C 61.0°F16.1°C 33% 1.2 mph SE1.9 kmh SE 3.5 mph5.6 kmh 29.77 in1008.1 mb - 0.00 in0.0 mm 0.00 in0.0 mm
02:55 PM 94.9°F34.9°C 62.1°F16.7°C 34% Calm Calm 1.2 mph1.9 kmh 29.77 in1008.1 mb - 0.00 in0.0 mm 0.00 in0.0 mm
03:00 PM 94.3°F34.6°C 59.9°F15.5°C 32% Calm Calm 2.3 mph3.7 kmh 29.77 in1008.1 mb - 0.00 in0.0 mm 0.00 in0.0 mm
03:10 PM 92.7°F33.7°C 60.2°F15.7°C 34% Calm Calm 1.2 mph1.9 kmh 29.77 in1008.1 mb - 0.00 in0.0 mm 0.00 in0.0 mm
03:15 PM 92.2°F33.4°C 59.0°F15.0°C 33% Calm Calm 2.3 mph3.7 kmh 29.77 in1008.1 mb - 0.00 in0.0 mm 0.00 in0.0 mm
03:20 PM 92.4°F33.6°C 60.8°F16.0°C 35% Calm Calm -- 29.77 in1008.1 mb - 0.00 in0.0 mm 0.00 in0.0 mm
03:25 PM 91.7°F33.2°C 60.2°F15.7°C 35% Calm Calm 1.2 mph1.9 kmh 29.77 in1008.1 mb - 0.00 in0.0 mm 0.00 in0.0 mm
03:30 PM 91.0°F32.8°C 59.6°F15.3°C 35% Calm Calm 2.3 mph3.7 kmh 29.77 in1008.1 mb - 0.00 in0.0 mm 0.00 in0.0 mm
03:35 PM 90.8°F32.7°C 57.8°F14.3°C 33% Calm Calm 2.3 mph3.7 kmh 29.77 in1008.1 mb - 0.00 in0.0 mm 0.00 in0.0 mm
03:40 PM 90.2°F32.3°C 58.0°F14.4°C 34% Calm Calm 2.3 mph3.7 kmh 29.77 in1008.1 mb - 0.00 in0.0 mm 0.00 in0.0 mm
03:45 PM 89.8°F32.1°C 60.0°F15.6°C 37% Calm Calm 1.2 mph1.9 kmh 29.77 in1008.1 mb - 0.00 in0.0 mm 0.00 in0.0 mm
03:50 PM 89.9°F32.2°C 59.4°F15.2°C 36% 1.2 mph SE1.9 kmh SE 2.3 mph3.7 kmh 29.77 in1008.1 mb - 0.00 in0.0 mm 0.00 in0.0 mm
03:55 PM 90.0°F32.2°C 58.7°F14.8°C 35% 1.2 mph SSE1.9 kmh SSE 1.2 mph1.9 kmh 29.77 in1008.1 mb - 0.00 in0.0 mm 0.00 in0.0 mm
04:00 PM 89.6°F32.0°C 59.1°F15.1°C 36% Calm Calm 1.2 mph1.9 kmh 29.76 in1007.8 mb - 0.00 in0.0 mm 0.00 in0.0 mm
04:10 PM 89.3°F31.8°C 58.8°F14.9°C 36% Calm Calm -- 29.76 in1007.8 mb - 0.00 in0.0 mm 0.00 in0.0 mm
04:15 PM 88.9°F31.6°C 56.9°F13.8°C 34% Calm Calm 1.2 mph1.9 kmh 29.76 in1007.8 mb - 0.00 in0.0 mm 0.00 in0.0 mm
04:20 PM 89.1°F31.7°C 55.4°F13.0°C 32% Calm Calm 1.2 mph1.9 kmh 29.76 in1007.8 mb - 0.00 in0.0 mm 0.00 in0.0 mm
04:25 PM 89.2°F31.8°C 56.4°F13.6°C 33% Calm Calm 2.3 mph3.7 kmh 29.76 in1007.8 mb - 0.00 in0.0 mm 0.00 in0.0 mm
04:30 PM 89.1°F31.7°C 57.1°F13.9°C 34% Calm Calm 1.2 mph1.9 kmh 29.76 in1007.8 mb - 0.00 in0.0 mm 0.00 in0.0 mm
04:35 PM 89.0°F31.7°C 57.8°F14.3°C 35% Calm Calm -- 29.76 in1007.8 mb - 0.00 in0.0 mm 0.00 in0.0 mm
04:40 PM 88.9°F31.6°C 56.9°F13.8°C 34% Calm Calm 1.2 mph1.9 kmh 29.76 in1007.8 mb - 0.00 in0.0 mm 0.00 in0.0 mm
04:45 PM 88.9°F31.6°C 56.1°F13.4°C 33% Calm Calm -- 29.76 in1007.8 mb - 0.00 in0.0 mm 0.00 in0.0 mm
04:50 PM 88.3°F31.3°C 55.6°F13.1°C 33% Calm Calm -- 29.76 in1007.8 mb - 0.00 in0.0 mm 0.00 in0.0 mm
04:55 PM 88.2°F31.2°C 56.3°F13.5°C 34% Calm Calm 1.2 mph1.9 kmh 29.76 in1007.8 mb - 0.00 in0.0 mm 0.00 in0.0 mm
05:00 PM 88.1°F31.2°C 57.0°F13.9°C 35% 1.2 mph SW1.9 kmh SW 2.3 mph3.7 kmh 29.76 in1007.8 mb - 0.00 in0.0 mm 0.00 in0.0 mm
05:10 PM 87.6°F30.9°C 58.1°F14.5°C 37% Calm Calm -- 29.76 in1007.8 mb - 0.00 in0.0 mm 0.00 in0.0 mm
05:15 PM 87.5°F30.8°C 56.5°F13.6°C 35% Calm Calm -- 29.76 in1007.8 mb - 0.00 in0.0 mm 0.00 in0.0 mm
05:20 PM 87.7°F30.9°C 55.8°F13.2°C 34% Calm Calm -- 29.76 in1007.8 mb - 0.00 in0.0 mm 0.00 in0.0 mm
05:25 PM 87.7°F30.9°C 57.4°F14.1°C 36% Calm Calm -- 29.77 in1008.1 mb - 0.00 in0.0 mm 0.00 in0.0 mm
05:30 PM 87.8°F31.0°C 57.5°F14.2°C 36% Calm Calm -- 29.76 in1007.8 mb - 0.00 in0.0 mm 0.00 in0.0 mm
05:35 PM 87.4°F30.8°C 57.2°F14.0°C 36% Calm Calm -- 29.76 in1007.8 mb - 0.00 in0.0 mm 0.00 in0.0 mm
05:40 PM 87.3°F30.7°C 58.6°F14.8°C 38% Calm Calm -- 29.76 in1007.8 mb - 0.00 in0.0 mm 0.00 in0.0 mm
05:45 PM 87.3°F30.7°C 56.3°F13.5°C 35% Calm Calm -- 29.76 in1007.8 mb - 0.00 in0.0 mm 0.00 in0.0 mm
05:50 PM 87.4°F30.8°C 58.6°F14.8°C 38% Calm Calm -- 29.76 in1007.8 mb - 0.00 in0.0 mm 0.00 in0.0 mm
05:55 PM 86.8°F30.4°C 59.6°F15.3°C 40% Calm Calm -- 29.75 in1007.5 mb - 0.00 in0.0 mm 0.00 in0.0 mm
06:00 PM 86.3°F30.2°C 59.8°F15.4°C 41% Calm Calm -- 29.75 in1007.5 mb - 0.00 in0.0 mm 0.00 in0.0 mm
06:10 PM 85.4°F29.7°C 60.4°F15.8°C 43% Calm Calm -- 29.75 in1007.5 mb - 0.00 in0.0 mm 0.00 in0.0 mm
06:15 PM 85.3°F29.6°C 59.6°F15.3°C 42% Calm Calm -- 29.75 in1007.5 mb - 0.00 in0.0 mm 0.00 in0.0 mm
06:20 PM 85.3°F29.6°C 60.9°F16.1°C 44% Calm Calm -- 29.75 in1007.5 mb - 0.00 in0.0 mm 0.00 in0.0 mm
06:25 PM 85.2°F29.6°C 61.5°F16.4°C 45% Calm Calm -- 29.75 in1007.5 mb - 0.00 in0.0 mm 0.00 in0.0 mm
06:30 PM 85.0°F29.4°C 61.3°F16.3°C 45% Calm Calm -- 29.75 in1007.5 mb - 0.00 in0.0 mm 0.00 in0.0 mm
06:35 PM 84.9°F29.4°C 61.8°F16.6°C 46% Calm Calm -- 29.75 in1007.5 mb - 0.00 in0.0 mm 0.00 in0.0 mm
06:40 PM 84.6°F29.2°C 60.2°F15.7°C 44% Calm Calm -- 29.75 in1007.5 mb - 0.00 in0.0 mm 0.00 in0.0 mm
06:45 PM 84.3°F29.1°C 61.3°F16.3°C 46% Calm Calm -- 29.75 in1007.5 mb - 0.00 in0.0 mm 0.00 in0.0 mm
06:50 PM 83.9°F28.8°C 60.9°F16.1°C 46% Calm Calm -- 29.74 in1007.1 mb - 0.00 in0.0 mm 0.00 in0.0 mm
06:55 PM 83.5°F28.6°C 59.9°F15.5°C 45% Calm Calm -- 29.74 in1007.1 mb - 0.00 in0.0 mm 0.00 in0.0 mm
07:00 PM 83.2°F28.4°C 59.7°F15.4°C 45% Calm Calm -- 29.75 in1007.5 mb - 0.00 in0.0 mm 0.00 in0.0 mm
07:10 PM 82.5°F28.1°C 60.2°F15.7°C 47% Calm Calm -- 29.75 in1007.5 mb - 0.00 in0.0 mm 0.00 in0.0 mm
07:15 PM 82.2°F27.9°C 60.5°F15.8°C 48% Calm Calm -- 29.75 in1007.5 mb - 0.00 in0.0 mm 0.00 in0.0 mm
07:20 PM 81.8°F27.7°C 61.3°F16.3°C 50% Calm Calm -- 29.75 in1007.5 mb - 0.00 in0.0 mm 0.00 in0.0 mm
07:25 PM 81.3°F27.4°C 60.9°F16.1°C 50% Calm Calm -- 29.75 in1007.5 mb - 0.00 in0.0 mm 0.00 in0.0 mm
07:30 PM 81.0°F27.2°C 61.2°F16.2°C 51% Calm Calm -- 29.75 in1007.5 mb - 0.00 in0.0 mm 0.00 in0.0 mm
07:35 PM 80.7°F27.1°C 61.4°F16.3°C 52% Calm Calm -- 29.75 in1007.5 mb - 0.00 in0.0 mm 0.00 in0.0 mm
07:40 PM 80.5°F26.9°C 61.3°F16.3°C 52% Calm Calm -- 29.75 in1007.5 mb - 0.00 in0.0 mm 0.00 in0.0 mm
07:45 PM 80.2°F26.8°C 60.4°F15.8°C 51% Calm Calm -- 29.75 in1007.5 mb - 0.00 in0.0 mm 0.00 in0.0 mm
07:50 PM 80.1°F26.7°C 60.4°F15.8°C 51% Calm Calm -- 29.75 in1007.5 mb - 0.00 in0.0 mm 0.00 in0.0 mm
07:55 PM 80.0°F26.7°C 60.8°F16.0°C 52% Calm Calm -- 29.75 in1007.5 mb - 0.00 in0.0 mm 0.00 in0.0 mm
08:00 PM 79.5°F26.4°C 60.3°F15.7°C 52% Calm Calm -- 29.75 in1007.5 mb - 0.00 in0.0 mm 0.00 in0.0 mm
08:10 PM 79.1°F26.2°C 61.0°F16.1°C 54% Calm Calm -- 29.75 in1007.5 mb - 0.00 in0.0 mm 0.00 in0.0 mm
08:15 PM 78.9°F26.1°C 60.9°F16.1°C 54% Calm Calm -- 29.75 in1007.5 mb - 0.00 in0.0 mm 0.00 in0.0 mm
08:20 PM 78.7°F25.9°C 61.2°F16.2°C 55% Calm Calm -- 29.75 in1007.5 mb - 0.00 in0.0 mm 0.00 in0.0 mm
08:25 PM 78.5°F25.8°C 61.0°F16.1°C 55% Calm Calm -- 29.76 in1007.8 mb - 0.00 in0.0 mm 0.00 in0.0 mm
08:30 PM 78.3°F25.7°C 60.8°F16.0°C 55% Calm Calm -- 29.76 in1007.8 mb - 0.00 in0.0 mm 0.00 in0.0 mm
08:35 PM 78.1°F25.6°C 61.1°F16.2°C 56% Calm Calm -- 29.75 in1007.5 mb - 0.00 in0.0 mm 0.00 in0.0 mm
08:40 PM 77.9°F25.5°C 61.0°F16.1°C 56% Calm Calm -- 29.75 in1007.5 mb - 0.00 in0.0 mm 0.00 in0.0 mm
08:45 PM 77.8°F25.4°C 60.8°F16.0°C 56% Calm Calm -- 29.75 in1007.5 mb - 0.00 in0.0 mm 0.00 in0.0 mm
08:50 PM 77.5°F25.3°C 60.6°F15.9°C 56% Calm Calm -- 29.76 in1007.8 mb - 0.00 in0.0 mm 0.00 in0.0 mm
08:55 PM 77.3°F25.2°C 60.9°F16.1°C 57% Calm Calm -- 29.76 in1007.8 mb - 0.00 in0.0 mm 0.00 in0.0 mm
09:00 PM 77.2°F25.1°C 61.3°F16.3°C 58% Calm Calm -- 29.76 in1007.8 mb - 0.00 in0.0 mm 0.00 in0.0 mm
09:10 PM 77.0°F25.0°C 60.6°F15.9°C 57% Calm Calm -- 29.76 in1007.8 mb - 0.00 in0.0 mm 0.00 in0.0 mm
09:15 PM 76.8°F24.9°C 60.9°F16.1°C 58% Calm Calm -- 29.77 in1008.1 mb - 0.00 in0.0 mm 0.00 in0.0 mm
09:20 PM 76.6°F24.8°C 60.7°F15.9°C 58% Calm Calm -- 29.77 in1008.1 mb - 0.00 in0.0 mm 0.00 in0.0 mm
09:25 PM 76.4°F24.7°C 61.0°F16.1°C 59% Calm Calm 1.2 mph1.9 kmh 29.77 in1008.1 mb - 0.00 in0.0 mm 0.00 in0.0 mm
09:30 PM 76.3°F24.6°C 60.9°F16.1°C 59% Calm Calm -- 29.77 in1008.1 mb - 0.00 in0.0 mm 0.00 in0.0 mm
09:35 PM 76.2°F24.6°C 60.8°F16.0°C 59% Calm Calm -- 29.76 in1007.8 mb - 0.00 in0.0 mm 0.00 in0.0 mm
09:40 PM 76.1°F24.5°C 60.7°F15.9°C 59% Calm Calm -- 29.76 in1007.8 mb - 0.00 in0.0 mm 0.00 in0.0 mm
09:45 PM 76.0°F24.4°C 60.7°F15.9°C 59% Calm Calm -- 29.76 in1007.8 mb - 0.00 in0.0 mm 0.00 in0.0 mm
09:50 PM 75.9°F24.4°C 60.5°F15.8°C 59% Calm Calm -- 29.76 in1007.8 mb - 0.00 in0.0 mm 0.00 in0.0 mm
09:55 PM 75.8°F24.3°C 60.4°F15.8°C 59% Calm Calm -- 29.75 in1007.5 mb - 0.00 in0.0 mm 0.00 in0.0 mm
10:00 PM 75.7°F24.3°C 60.4°F15.8°C 59% Calm Calm -- 29.75 in1007.5 mb - 0.00 in0.0 mm 0.00 in0.0 mm
10:10 PM 75.3°F24.1°C 60.5°F15.8°C 60% Calm Calm -- 29.76 in1007.8 mb - 0.00 in0.0 mm 0.00 in0.0 mm